Hansa Limburg — A8IH6 — position and weather

sailwx.info

Track history (hours):
 
Tides and Currents Weather Stations Pressure Air Temp Water Temp Dewpoint Dewpoint Depression Visibility Wind Speed Wind Dir Waves Ship Positions

Hansa Limburg

Last reported at 2017-Feb-23 16:33 UTC. Time now 2017-Feb-26 10:41 UTC.
Position N 43°37' E 013°30'.

Length 175.5 m; beam 27.4 m; draft 10.9 m.

Type: Ship (hazmat cat A). MMSI: 636090980.

Date/timePositionNaut miles runAvg speedWind from/ knotsBaromVisibWave heightAir tempDewpointWater temp
2017-Feb-23 16:33N 43°37' E 013°30'0 0.0
2017-Feb-23 15:24N 43°37' E 013°30'0 0.0
2017-Feb-23 14:16N 43°37' E 013°30'4 3.3
2017-Feb-23 13:12N 43°40' E 013°32'911.2
2017-Feb-23 12:24N 43°46' E 013°42'910.8
2017-Feb-23 11:33N 43°55' E 013°43'1917.0
2017-Feb-23 10:26N 44°07' E 013°22'1517.1
2017-Feb-23 09:33N 44°19' E 013°10'1717.5
2017-Feb-23 08:33N 44°35' E 013°02'1717.3
2017-Feb-23 07:33N 44°51' E 012°52'1717.2
2017-Feb-23 06:33N 45°06' E 012°41'1716.7
2017-Feb-23 05:33N 45°18' E 012°24'8 7.9
2017-Feb-23 04:33N 45°23' E 012°16'4 4.3
2017-Feb-23 03:33N 45°27' E 012°15'0 0.0
2017-Feb-23 02:33N 45°27' E 012°15'0 0.0
2017-Feb-23 01:34N 45°27' E 012°15'0 0.0
2017-Feb-23 00:33N 45°27' E 012°15'0 0.0
2017-Feb-22 23:32N 45°27' E 012°15'0 0.0
2017-Feb-22 22:33N 45°27' E 012°15'0 0.0
2017-Feb-22 21:34N 45°27' E 012°15'0 0.0
2017-Feb-22 20:34N 45°27' E 012°15'0 0.0
2017-Feb-22 19:33N 45°27' E 012°15'0 0.0
2017-Feb-22 18:33N 45°27' E 012°15'0 0.0
2017-Feb-22 17:33N 45°27' E 012°15'0 0.0
2017-Feb-22 16:33N 45°27' E 012°15'0 0.0
2017-Feb-22 15:33N 45°27' E 012°15'0 0.0
2017-Feb-22 14:33N 45°27' E 012°15'0 0.0
2017-Feb-22 13:34N 45°27' E 012°15'0 0.0
2017-Feb-22 12:33N 45°27' E 012°15'0 0.0
2017-Feb-22 11:33N 45°27' E 012°15'0 0.0
2017-Feb-22 10:33N 45°27' E 012°15'0 0.0
2017-Feb-22 09:33N 45°27' E 012°15'0 0.0
2017-Feb-22 08:33N 45°27' E 012°15'0 0.0
2017-Feb-22 07:33N 45°27' E 012°15'0 0.0
2017-Feb-22 06:33N 45°27' E 012°15'0 0.0
2017-Feb-22 05:33N 45°27' E 012°15'0 0.0
2017-Feb-22 04:33N 45°27' E 012°15'0 0.0
2017-Feb-22 03:33N 45°27' E 012°15'0 0.0
2017-Feb-22 02:33N 45°27' E 012°15'0 0.0
2017-Feb-22 01:33N 45°27' E 012°15'0 0.0
2017-Feb-22 00:33N 45°27' E 012°15'0 0.0
2017-Feb-21 23:33N 45°27' E 012°15'0 0.0
2017-Feb-21 22:33N 45°27' E 012°15'0 0.0
2017-Feb-21 21:34N 45°27' E 012°15'0 0.0
2017-Feb-21 20:32N 45°27' E 012°15'0 0.0
2017-Feb-21 19:33N 45°27' E 012°15'0 0.0
2017-Feb-21 18:30N 45°27' E 012°15'0 0.0
2017-Feb-21 17:33N 45°27' E 012°15'0 0.0
2017-Feb-21 16:30N 45°27' E 012°15'0 0.0
2017-Feb-21 15:33N 45°27' E 012°15'0 0.0
2017-Feb-21 14:32N 45°27' E 012°15'1 1.1
2017-Feb-21 13:34N 45°26' E 012°16'7 6.9
2017-Feb-21 12:33N 45°20' E 012°20'6 5.8
2017-Feb-21 11:29N 45°21' E 012°29'0 0.0
2017-Feb-21 10:32N 45°21' E 012°29'0 0.0
2017-Feb-21 09:29N 45°21' E 012°29'0 0.0
2017-Feb-21 08:32N 45°21' E 012°29'0 0.0
2017-Feb-21 07:32N 45°21' E 012°29'0 0.1
2017-Feb-21 06:29N 45°21' E 012°29'0 0.0
2017-Feb-21 05:32N 45°21' E 012°29'0 0.2
2017-Feb-21 04:33N 45°21' E 012°29'0 0.4
2017-Feb-21 03:22N 45°21' E 012°29'0 0.0
2017-Feb-21 02:32N 45°21' E 012°29'0 0.0
2017-Feb-21 01:31N 45°21' E 012°29'0 0.1
2017-Feb-21 00:31N 45°21' E 012°29'0 0.0
2017-Feb-20 23:31N 45°21' E 012°29'1 1.3
2017-Feb-20 22:34N 45°20' E 012°29'8 7.9
2017-Feb-20 21:33N 45°17' E 012°39'1111.3
2017-Feb-20 20:34N 45°23' E 012°54'1211.6
2017-Feb-20 19:34N 45°29' E 013°07'1211.6
2017-Feb-20 18:34N 45°34' E 013°22'1111.0
2017-Feb-20 17:33N 45°37' E 013°37'6 6.0
2017-Feb-20 16:33N 45°33' E 013°44'0 0.0
2017-Feb-20 15:33N 45°33' E 013°44'0 0.0
2017-Feb-20 14:33N 45°33' E 013°44'0 0.0
2017-Feb-20 13:33N 45°33' E 013°44'0 0.0
2017-Feb-20 12:33N 45°33' E 013°44'0 0.0
2017-Feb-20 11:33N 45°33' E 013°44'0 0.0
2017-Feb-20 10:33N 45°33' E 013°44'0 0.0
2017-Feb-20 09:33N 45°33' E 013°44'0 0.0
2017-Feb-20 08:33N 45°33' E 013°44'0 0.0
2017-Feb-20 07:33N 45°33' E 013°44'0 0.0
2017-Feb-20 06:32N 45°33' E 013°44'0 0.0
2017-Feb-20 05:26N 45°33' E 013°44'0 0.0
2017-Feb-20 04:29N 45°33' E 013°44'0 0.1
2017-Feb-20 03:33N 45°33' E 013°44'3 2.8
2017-Feb-20 02:34N 45°34' E 013°40'5 5.1
2017-Feb-20 01:34N 45°35' E 013°33'6 6.5
2017-Feb-20 00:33N 45°31' E 013°25'6 6.4
2017-Feb-19 23:34N 45°28' E 013°17'8 8.0
2017-Feb-19 22:34N 45°21' E 013°11'1211.7
2017-Feb-19 21:33N 45°10' E 013°14'1211.6
2017-Feb-19 20:34N 44°59' E 013°21'1211.6
2017-Feb-19 19:34N 44°49' E 013°29'1211.5
2017-Feb-19 18:34N 44°41' E 013°40'1111.3
2017-Feb-19 17:34N 44°40' E 013°56'10 9.7
2017-Feb-19 16:34N 44°46' E 014°06'1511.6
2017-Feb-19 15:15N 45°00' E 014°13'1911.2
2017-Feb-19 13:33N 45°17' E 014°25'2 2.0
2017-Feb-19 12:22N 45°19' E 014°27'1 0.0
2017-Feb-18 21:27N 45°19' E 014°26'6 6.4
2017-Feb-18 20:29N 45°14' E 014°21'1110.8
2017-Feb-18 19:30N 45°04' E 014°15'1414.3
2017-Feb-18 18:33N 44°51' E 014°09'1514.9
2017-Feb-18 17:33N 44°37' E 014°03'1615.7
2017-Feb-18 16:33N 44°23' E 014°13'  
Track history (hours):
 
Tides and Currents Weather Stations Pressure Air Temp Water Temp Dewpoint Dewpoint Depression Visibility Wind Speed Wind Dir Waves Ship Positions

Hansa Limburg

Last reported at 2017-Feb-23 16:33 UTC. Time now 2017-Feb-26 10:41 UTC.
Position N 43°37' E 013°30'.

Length 175.5 m; beam 27.4 m; draft 10.9 m.

Type: Ship (hazmat cat A). MMSI: 636090980.

Date/timePositionNaut miles runAvg speedWind from/ knotsBaromVisibWave heightAir tempDewpointWater temp
2017-Feb-23 16:33N 43°37' E 013°30'0 0.0
2017-Feb-23 15:24N 43°37' E 013°30'0 0.0
2017-Feb-23 14:16N 43°37' E 013°30'4 3.3
2017-Feb-23 13:12N 43°40' E 013°32'911.2
2017-Feb-23 12:24N 43°46' E 013°42'910.8
2017-Feb-23 11:33N 43°55' E 013°43'1917.0
2017-Feb-23 10:26N 44°07' E 013°22'1517.1
2017-Feb-23 09:33N 44°19' E 013°10'1717.5
2017-Feb-23 08:33N 44°35' E 013°02'1717.3
2017-Feb-23 07:33N 44°51' E 012°52'1717.2
2017-Feb-23 06:33N 45°06' E 012°41'1716.7
2017-Feb-23 05:33N 45°18' E 012°24'8 7.9
2017-Feb-23 04:33N 45°23' E 012°16'4 4.3
2017-Feb-23 03:33N 45°27' E 012°15'0 0.0
2017-Feb-23 02:33N 45°27' E 012°15'0 0.0
2017-Feb-23 01:34N 45°27' E 012°15'0 0.0
2017-Feb-23 00:33N 45°27' E 012°15'0 0.0
2017-Feb-22 23:32N 45°27' E 012°15'0 0.0
2017-Feb-22 22:33N 45°27' E 012°15'0 0.0
2017-Feb-22 21:34N 45°27' E 012°15'0 0.0
2017-Feb-22 20:34N 45°27' E 012°15'0 0.0
2017-Feb-22 19:33N 45°27' E 012°15'0 0.0
2017-Feb-22 18:33N 45°27' E 012°15'0 0.0
2017-Feb-22 17:33N 45°27' E 012°15'0 0.0
2017-Feb-22 16:33N 45°27' E 012°15'0 0.0
2017-Feb-22 15:33N 45°27' E 012°15'0 0.0
2017-Feb-22 14:33N 45°27' E 012°15'0 0.0
2017-Feb-22 13:34N 45°27' E 012°15'0 0.0
2017-Feb-22 12:33N 45°27' E 012°15'0 0.0
2017-Feb-22 11:33N 45°27' E 012°15'0 0.0
2017-Feb-22 10:33N 45°27' E 012°15'0 0.0
2017-Feb-22 09:33N 45°27' E 012°15'0 0.0
2017-Feb-22 08:33N 45°27' E 012°15'0 0.0
2017-Feb-22 07:33N 45°27' E 012°15'0 0.0
2017-Feb-22 06:33N 45°27' E 012°15'0 0.0
2017-Feb-22 05:33N 45°27' E 012°15'0 0.0
2017-Feb-22 04:33N 45°27' E 012°15'0 0.0
2017-Feb-22 03:33N 45°27' E 012°15'0 0.0
2017-Feb-22 02:33N 45°27' E 012°15'0 0.0
2017-Feb-22 01:33N 45°27' E 012°15'0 0.0
2017-Feb-22 00:33N 45°27' E 012°15'0 0.0
2017-Feb-21 23:33N 45°27' E 012°15'0 0.0
2017-Feb-21 22:33N 45°27' E 012°15'0 0.0
2017-Feb-21 21:34N 45°27' E 012°15'0 0.0
2017-Feb-21 20:32N 45°27' E 012°15'0 0.0
2017-Feb-21 19:33N 45°27' E 012°15'0 0.0
2017-Feb-21 18:30N 45°27' E 012°15'0 0.0
2017-Feb-21 17:33N 45°27' E 012°15'0 0.0
2017-Feb-21 16:30N 45°27' E 012°15'0 0.0
2017-Feb-21 15:33N 45°27' E 012°15'0 0.0
2017-Feb-21 14:32N 45°27' E 012°15'1 1.1
2017-Feb-21 13:34N 45°26' E 012°16'7 6.9
2017-Feb-21 12:33N 45°20' E 012°20'6 5.8
2017-Feb-21 11:29N 45°21' E 012°29'0 0.0
2017-Feb-21 10:32N 45°21' E 012°29'0 0.0
2017-Feb-21 09:29N 45°21' E 012°29'0 0.0
2017-Feb-21 08:32N 45°21' E 012°29'0 0.0
2017-Feb-21 07:32N 45°21' E 012°29'0 0.1
2017-Feb-21 06:29N 45°21' E 012°29'0 0.0
2017-Feb-21 05:32N 45°21' E 012°29'0 0.2
2017-Feb-21 04:33N 45°21' E 012°29'0 0.4
2017-Feb-21 03:22N 45°21' E 012°29'0 0.0
2017-Feb-21 02:32N 45°21' E 012°29'0 0.0
2017-Feb-21 01:31N 45°21' E 012°29'0 0.1
2017-Feb-21 00:31N 45°21' E 012°29'0 0.0
2017-Feb-20 23:31N 45°21' E 012°29'1 1.3
2017-Feb-20 22:34N 45°20' E 012°29'8 7.9
2017-Feb-20 21:33N 45°17' E 012°39'1111.3
2017-Feb-20 20:34N 45°23' E 012°54'1211.6
2017-Feb-20 19:34N 45°29' E 013°07'1211.6
2017-Feb-20 18:34N 45°34' E 013°22'1111.0
2017-Feb-20 17:33N 45°37' E 013°37'6 6.0
2017-Feb-20 16:33N 45°33' E 013°44'0 0.0
2017-Feb-20 15:33N 45°33' E 013°44'0 0.0
2017-Feb-20 14:33N 45°33' E 013°44'0 0.0
2017-Feb-20 13:33N 45°33' E 013°44'0 0.0
2017-Feb-20 12:33N 45°33' E 013°44'0 0.0
2017-Feb-20 11:33N 45°33' E 013°44'0 0.0
2017-Feb-20 10:33N 45°33' E 013°44'0 0.0
2017-Feb-20 09:33N 45°33' E 013°44'0 0.0
2017-Feb-20 08:33N 45°33' E 013°44'0 0.0
2017-Feb-20 07:33N 45°33' E 013°44'0 0.0
2017-Feb-20 06:32N 45°33' E 013°44'0 0.0
2017-Feb-20 05:26N 45°33' E 013°44'0 0.0
2017-Feb-20 04:29N 45°33' E 013°44'0 0.1
2017-Feb-20 03:33N 45°33' E 013°44'3 2.8
2017-Feb-20 02:34N 45°34' E 013°40'5 5.1
2017-Feb-20 01:34N 45°35' E 013°33'6 6.5
2017-Feb-20 00:33N 45°31' E 013°25'6 6.4
2017-Feb-19 23:34N 45°28' E 013°17'8 8.0
2017-Feb-19 22:34N 45°21' E 013°11'1211.7
2017-Feb-19 21:33N 45°10' E 013°14'1211.6
2017-Feb-19 20:34N 44°59' E 013°21'1211.6
2017-Feb-19 19:34N 44°49' E 013°29'1211.5
2017-Feb-19 18:34N 44°41' E 013°40'1111.3
2017-Feb-19 17:34N 44°40' E 013°56'10 9.7
2017-Feb-19 16:34N 44°46' E 014°06'1511.6
2017-Feb-19 15:15N 45°00' E 014°13'1911.2
2017-Feb-19 13:33N 45°17' E 014°25'2 2.0
2017-Feb-19 12:22N 45°19' E 014°27'1 0.0
2017-Feb-18 21:27N 45°19' E 014°26'6 6.4
2017-Feb-18 20:29N 45°14' E 014°21'1110.8
2017-Feb-18 19:30N 45°04' E 014°15'1414.3
2017-Feb-18 18:33N 44°51' E 014°09'1514.9
2017-Feb-18 17:33N 44°37' E 014°03'1615.7
2017-Feb-18 16:33N 44°23' E 014°13'  

Dump ship's entire track history